This is the latest recevied weather packets stored in our database for station/object YB2VNE-13. If no packets are shown the sender has not sent any weather packets the latest 10 day(s).
| Time | Temp. | Humidity | Pressure | Rain* | Wind** | Luminosity | Snow |
|---|---|---|---|---|---|---|---|
| 1787986417 | 30° C | 55% | 996 hPa | - | - | 0 W/m² | - |
| 1787986107 | 30° C | 55% | 996 hPa | - | - | 0 W/m² | - |
| 1787985797 | 30° C | 55% | 996 hPa | - | - | 0 W/m² | - |
| 1787985487 | 30° C | 55% | 996 hPa | - | - | 0 W/m² | - |
| 1787985177 | 30° C | 55% | 997 hPa | - | - | 0 W/m² | - |
| 1787984867 | 29.44° C | 56% | 997 hPa | - | - | 0 W/m² | - |
| 1787984557 | 30° C | 55% | 997 hPa | - | - | 0 W/m² | - |
| 1787984247 | 29.44° C | 55% | 997 hPa | - | - | 0 W/m² | - |
| 1787983937 | 30° C | 54% | 997 hPa | - | - | 0 W/m² | - |
| 1787983627 | 30° C | 54% | 997 hPa | - | - | 0 W/m² | - |
| 1787983317 | 30° C | 53% | 997 hPa | - | - | 0 W/m² | - |
| 1787983007 | 30° C | 52% | 997 hPa | - | - | 0 W/m² | - |
| 1787982697 | 29.44° C | 53% | 997 hPa | - | - | 0 W/m² | - |
| 1787982394 | 30° C | 52% | 997 hPa | - | - | 0 W/m² | - |
| 1787982077 | 28.89° C | 54% | 997 hPa | - | - | 0 W/m² | - |
| 1787981767 | 29.44° C | 49% | 997 hPa | - | - | 0 W/m² | - |
| 1787981457 | 29.44° C | 47% | 998 hPa | - | - | 0 W/m² | - |
| 1787981147 | 29.44° C | 47% | 998 hPa | - | - | 0 W/m² | - |
| 1787980837 | 29.44° C | 48% | 998 hPa | - | - | 0 W/m² | - |
| 1787980527 | 29.44° C | 48% | 998 hPa | - | - | 0 W/m² | - |
| 1787980217 | 28.89° C | 49% | 998 hPa | - | - | 0 W/m² | - |
| 1787979907 | 28.89° C | 50% | 998 hPa | - | - | 0 W/m² | - |
| 1787979597 | 28.89° C | 48% | 998 hPa | - | - | 0 W/m² | - |
| 1787979287 | 28.89° C | 49% | 998 hPa | - | - | 0 W/m² | - |
| 1787978977 | 28.33° C | 50% | 998 hPa | - | - | 0 W/m² | - |
* Rain since midnight (hover to see other rain measurements)
** Current wind speed in m/s (hover to see current wind gust speed)